Time;durP1;ratioP1;P1;durP2;ratioP2;P2;SDS_P1;SDS_P2;PMS_P1;PMS_P2;Temp;Humidity;BMP_temperature;BMP_pressure;BME280_temperature;BME280_humidity;BME280_pressure;Samples;Min_cycle;Max_cycle;Signal;HPM_P1;HPM_P2
2021/12/04 00:01:10;;;;;;;1.80;1.00;;;;;;;20.60;31.55;99050.56;5069838;28;20119;-49
2021/12/04 00:03:39;;;;;;;2.13;1.17;;;;;;;20.61;31.77;99041.06;5069800;28;20052;-50
2021/12/04 00:06:22;;;;;;;1.95;1.17;;;;;;;20.58;31.63;99030.72;5069845;28;20047;-68
2021/12/04 00:08:48;;;;;;;2.05;1.10;;;;;;;20.60;31.87;99022.78;5069677;28;20509;-49
2021/12/04 00:11:14;;;;;;;2.33;1.17;;;;;;;20.60;31.73;99028.34;5069667;28;20036;-48
2021/12/04 00:13:40;;;;;;;1.98;1.15;;;;;;;20.59;31.84;99031.50;5069478;28;20056;-48
2021/12/04 00:16:05;;;;;;;2.20;1.33;;;;;;;20.57;31.87;99020.78;5069645;28;20159;-49
2021/12/04 00:18:31;;;;;;;2.72;1.42;;;;;;;20.57;32.04;99017.19;5069548;28;20044;-49
2021/12/04 00:20:56;;;;;;;2.03;1.25;;;;;;;20.57;31.79;99022.72;5069697;28;20084;-53
2021/12/04 00:23:22;;;;;;;2.42;1.40;;;;;;;20.56;32.00;99019.16;5069674;28;20037;-48
2021/12/04 00:25:47;;;;;;;2.42;1.33;;;;;;;20.55;32.03;99017.56;5069404;28;20528;-49
2021/12/04 00:28:12;;;;;;;2.10;1.40;;;;;;;20.56;32.06;99010.03;5069573;28;20101;-47
2021/12/04 00:30:38;;;;;;;2.55;1.52;;;;;;;20.55;31.99;99008.44;5069394;28;20036;-48
2021/12/04 00:33:14;;;;;;;2.55;1.60;;;;;;;20.56;31.92;99010.03;5069434;28;20083;-49
2021/12/04 00:35:46;;;;;;;2.88;1.73;;;;;;;20.56;32.26;98998.91;5068543;28;20090;-48
2021/12/04 00:51:45;;;;;;;3.10;1.98;;;;;;;20.53;32.18;98988.59;5048796;28;20045;-67
2021/12/04 00:54:12;;;;;;;3.45;1.67;;;;;;;20.53;32.44;98985.81;5046531;28;20053;-68
2021/12/04 00:56:40;;;;;;;2.22;1.52;;;;;;;20.51;32.35;98986.19;5046652;28;20084;-68
2021/12/04 00:59:06;;;;;;;2.67;1.58;;;;;;;20.53;32.20;98974.69;5047110;28;20051;-69
2021/12/04 01:01:32;;;;;;;2.88;1.90;;;;;;;20.52;32.45;98970.31;5068948;28;20036;-69
2021/12/04 01:03:57;;;;;;;2.90;1.75;;;;;;;20.50;32.20;98975.44;5068825;28;20512;-68
2021/12/04 01:06:23;;;;;;;2.45;1.60;;;;;;;20.52;32.27;98984.22;5069401;28;20102;-68
2021/12/04 01:08:48;;;;;;;2.33;1.50;;;;;;;20.52;32.46;98970.31;5069125;28;20048;-68
2021/12/04 01:11:14;;;;;;;2.95;1.70;;;;;;;20.53;32.27;98963.56;5066991;28;20060;-47
2021/12/04 01:13:39;;;;;;;2.47;1.60;;;;;;;20.52;32.46;98959.22;5068893;28;20061;-48
2021/12/04 01:16:05;;;;;;;2.70;1.40;;;;;;;20.52;32.34;98956.44;5068837;28;20409;-48
2021/12/04 01:18:31;;;;;;;2.20;1.40;;;;;;;20.51;32.41;98952.84;5069037;28;20040;-47
2021/12/04 01:20:57;;;;;;;2.47;1.48;;;;;;;20.50;32.38;98945.69;5068739;28;20049;-47
2021/12/04 01:23:22;;;;;;;2.50;1.50;;;;;;;20.50;32.50;98942.94;5068664;28;20074;-49
2021/12/04 01:25:48;;;;;;;2.78;1.55;;;;;;;20.49;32.24;98935.75;5068645;28;20052;-48
2021/12/04 01:28:14;;;;;;;2.63;1.38;;;;;;;20.48;32.23;98944.47;5068691;28;20040;-49
2021/12/04 01:30:39;;;;;;;2.45;1.48;;;;;;;20.47;32.36;98942.88;5068790;28;20052;-49
2021/12/04 01:33:05;;;;;;;2.80;1.40;;;;;;;20.51;32.46;98950.06;5068857;28;20071;-48
2021/12/04 01:35:30;;;;;;;2.72;1.58;;;;;;;20.50;32.39;98947.66;5068784;28;20078;-47
2021/12/04 01:37:56;;;;;;;2.60;1.42;;;;;;;20.51;32.39;98943.72;5068766;28;20566;-48
2021/12/04 01:40:22;;;;;;;2.38;1.60;;;;;;;20.48;32.49;98942.50;5068001;28;20090;-68
2021/12/04 01:42:47;;;;;;;2.00;1.30;;;;;;;20.47;32.29;98937.31;5068585;28;20064;-48
2021/12/04 01:45:13;;;;;;;2.30;1.40;;;;;;;20.49;32.53;98927.41;5068463;28;20045;-48
2021/12/04 01:47:39;;;;;;;2.38;1.40;;;;;;;20.49;32.39;98929.41;5068494;28;20059;-48
2021/12/04 01:50:06;;;;;;;2.03;1.20;;;;;;;20.47;32.50;98929.78;5068774;28;20436;-49
2021/12/04 01:52:32;;;;;;;1.92;1.25;;;;;;;20.49;32.46;98930.19;5068361;28;20462;-48
2021/12/04 01:54:57;;;;;;;2.47;1.40;;;;;;;20.50;32.13;98931.81;5070185;28;20048;-48
2021/12/04 01:57:24;;;;;;;2.58;1.60;;;;;;;20.51;32.41;98936.19;5071915;28;20434;-47
2021/12/04 01:59:50;;;;;;;2.58;1.40;;;;;;;20.51;32.46;98938.97;5071913;28;20600;-47
2021/12/04 02:02:15;;;;;;;2.30;1.35;;;;;;;20.51;32.49;98924.28;5053648;28;20143;-47
2021/12/04 02:04:41;;;;;;;2.28;1.40;;;;;;;20.52;32.32;98917.53;5071386;28;20049;-67
2021/12/04 02:07:08;;;;;;;2.00;1.30;;;;;;;20.52;32.29;98914.75;5071857;28;20055;-68
2021/12/04 02:09:35;;;;;;;1.90;1.23;;;;;;;20.51;32.53;98910.38;5071520;28;20041;-68
2021/12/04 02:12:04;;;;;;;2.03;1.42;;;;;;;20.51;32.33;98904.81;5071551;28;20542;-68
2021/12/04 02:14:30;;;;;;;2.20;1.42;;;;;;;20.52;32.43;98910.00;5071023;28;20505;-68
2021/12/04 02:16:55;;;;;;;2.42;1.40;;;;;;;20.51;32.44;98907.59;5051439;28;20075;-68
2021/12/04 02:19:21;;;;;;;2.33;1.40;;;;;;;20.49;32.39;98898.84;5051701;28;20427;-68
2021/12/04 02:21:47;;;;;;;2.55;1.50;;;;;;;20.49;32.57;98885.75;5051724;28;20048;-68
2021/12/04 02:24:12;;;;;;;1.90;1.23;;;;;;;20.53;32.52;98888.56;5051567;28;20168;-69
2021/12/04 02:26:38;;;;;;;2.03;1.20;;;;;;;20.51;32.58;98875.06;5051498;28;20044;-48
2021/12/04 02:29:03;;;;;;;2.38;1.45;;;;;;;20.53;32.55;98875.47;5051162;28;20587;-48
2021/12/04 02:31:29;;;;;;;2.00;1.20;;;;;;;20.52;32.44;98870.31;5051356;28;20084;-48
2021/12/04 02:33:54;;;;;;;1.60;1.10;;;;;;;20.53;32.54;98872.69;5051304;28;20049;-47
2021/12/04 02:36:20;;;;;;;1.90;1.20;;;;;;;20.54;32.65;98868.72;5051165;28;20048;-48
2021/12/04 02:38:51;;;;;;;2.40;1.50;;;;;;;20.55;32.30;98861.19;5050495;28;20107;-48
2021/12/04 02:41:17;;;;;;;2.17;1.38;;;;;;;20.54;32.52;98852.06;5051150;28;20053;-48
2021/12/04 02:43:43;;;;;;;2.28;1.50;;;;;;;20.56;32.55;98854.44;5050936;28;20163;-47
2021/12/04 02:46:08;;;;;;;2.05;1.30;;;;;;;20.55;32.58;98847.28;5051404;28;20124;-47
2021/12/04 02:48:34;;;;;;;1.90;1.13;;;;;;;20.57;32.77;98850.47;5051262;28;20179;-47
2021/12/04 02:50:59;;;;;;;1.48;1.02;;;;;;;20.56;32.54;98841.34;5051116;28;20381;-48
2021/12/04 02:53:25;;;;;;;1.92;1.10;;;;;;;20.58;32.53;98838.19;5050758;28;20057;-48
2021/12/04 02:55:52;;;;;;;1.95;1.20;;;;;;;20.57;32.54;98823.50;5051163;28;20111;-48
2021/12/04 02:58:18;;;;;;;1.88;1.30;;;;;;;20.58;32.56;98822.31;5050947;28;20045;-68
2021/12/04 03:00:50;;;;;;;2.35;1.38;;;;;;;20.58;32.58;98807.63;5050745;28;20053;-68
2021/12/04 03:03:19;;;;;;;1.92;1.20;;;;;;;20.61;32.52;98817.97;5050297;28;20499;-68
2021/12/04 03:05:48;;;;;;;2.03;1.35;;;;;;;20.60;32.56;98810.81;5049995;28;20187;-68
2021/12/04 03:08:14;;;;;;;2.00;1.30;;;;;;;20.61;32.74;98812.41;5050839;28;20049;-68
2021/12/04 03:10:39;;;;;;;2.17;1.30;;;;;;;20.61;32.75;98804.06;5050791;28;20041;-68
2021/12/04 03:13:08;;;;;;;2.15;1.30;;;;;;;20.58;32.71;98796.53;5050911;28;20092;-68
2021/12/04 03:15:34;;;;;;;2.40;1.40;;;;;;;20.63;32.88;98793.34;5051049;28;20044;-69
2021/12/04 03:17:59;;;;;;;1.95;1.10;;;;;;;20.63;32.69;98793.34;5050786;28;20095;-68
2021/12/04 03:20:25;;;;;;;2.10;1.40;;;;;;;20.65;32.66;98787.44;5050591;28;20118;-68
2021/12/04 03:22:58;;;;;;;1.52;1.10;;;;;;;20.63;32.63;98782.25;5050501;28;20485;-68
2021/12/04 03:25:23;;;;;;;2.20;1.40;;;;;;;20.65;32.83;98779.09;5050568;28;20412;-68
2021/12/04 03:27:50;;;;;;;1.70;1.20;;;;;;;20.64;32.88;98775.50;5050452;28;20492;-69
2021/12/04 03:30:30;;;;;;;1.67;1.05;;;;;;;20.64;32.65;98775.50;5050447;28;20400;-68
2021/12/04 03:40:58;;;;;;;1.95;1.23;;;;;;;20.64;32.86;98785.81;5048787;28;20063;-49
2021/12/04 03:43:24;;;;;;;2.17;1.30;;;;;;;20.63;32.97;98770.31;5050128;28;20044;-47
2021/12/04 03:45:56;;;;;;;1.58;1.10;;;;;;;20.64;32.87;98772.72;5050177;28;20496;-48
2021/12/04 03:48:55;;;;;;;2.35;1.30;;;;;;;20.65;32.91;98776.31;5050246;28;20048;-48
2021/12/04 03:51:13;;;;;;;2.10;1.33;;;;;;;20.65;33.06;98762.41;5047098;28;20045;-47
2021/12/04 03:53:40;;;;;;;1.73;1.13;;;;;;;20.64;32.83;98758.03;5050001;28;20052;-48
2021/12/04 03:56:06;;;;;;;1.88;1.13;;;;;;;20.63;32.90;98760.00;5050246;28;20091;-48
2021/12/04 03:58:31;;;;;;;1.70;1.10;;;;;;;20.63;32.95;98750.88;5049756;28;20045;-47
2021/12/04 04:00:57;;;;;;;1.98;1.27;;;;;;;20.61;32.91;98752.06;5050006;28;20063;-47
2021/12/04 04:03:25;;;;;;;1.90;1.27;;;;;;;20.62;33.05;98752.88;5049834;28;20044;-49
2021/12/04 04:05:50;;;;;;;1.98;1.10;;;;;;;20.62;32.94;98752.88;5049799;28;20140;-48
2021/12/04 04:08:16;;;;;;;1.92;1.20;;;;;;;20.60;33.12;98750.47;5049946;28;20120;-47
2021/12/04 04:10:43;;;;;;;2.05;1.33;;;;;;;20.58;33.12;98735.41;5049835;28;20037;-48
2021/12/04 04:13:12;;;;;;;2.30;1.40;;;;;;;20.58;33.15;98738.97;5049843;28;20442;-47
2021/12/04 04:15:38;;;;;;;2.05;1.30;;;;;;;20.58;33.29;98747.31;5049760;28;20389;-48
2021/12/04 04:18:05;;;;;;;2.17;1.20;;;;;;;20.59;33.30;98745.31;5049671;28;20045;-68
2021/12/04 04:20:31;;;;;;;1.77;1.00;;;;;;;20.58;33.21;98743.72;5049650;28;20041;-69
2021/12/04 04:22:57;;;;;;;2.25;1.33;;;;;;;20.59;33.30;98736.97;5049492;28;20049;-68
2021/12/04 04:25:23;;;;;;;1.77;1.10;;;;;;;20.59;33.14;98736.97;5049607;28;20420;-68
2021/12/04 04:27:49;;;;;;;1.60;0.98;;;;;;;20.59;33.39;98737.78;5049579;28;20044;-49
2021/12/04 04:30:17;;;;;;;1.60;1.10;;;;;;;20.60;33.09;98730.25;5049436;28;20509;-52
2021/12/04 04:32:44;;;;;;;1.98;1.30;;;;;;;20.59;33.17;98717.53;5049247;28;20483;-47
2021/12/04 04:35:15;;;;;;;1.60;1.00;;;;;;;20.60;33.29;98721.91;5049638;28;20087;-68
2021/12/04 05:10:18;;;;;;;2.10;1.20;;;;;;;20.57;33.42;98683.75;5049176;28;20098;-68
2021/12/04 05:11:03;;;;;;;1.95;1.30;;;;;;;20.57;33.54;98673.47;5048962;28;20048;-68
2021/12/04 05:13:26;;;;;;;2.45;1.10;;;;;;;20.56;33.38;98669.09;5048910;28;20056;-68
2021/12/04 05:20:54;;;;;;;1.90;1.20;;;;;;;20.56;33.58;98687.75;5049158;28;20049;-68
2021/12/04 05:23:23;;;;;;;2.00;1.10;;;;;;;20.57;33.63;98681.81;5048980;28;20045;-49
2021/12/04 05:25:50;;;;;;;1.98;1.30;;;;;;;20.55;33.55;98675.81;5031112;28;20495;-48
2021/12/04 05:28:16;;;;;;;1.65;1.15;;;;;;;20.56;33.63;98676.63;5048933;28;20090;-51
2021/12/04 05:30:42;;;;;;;1.85;1.20;;;;;;;20.56;33.62;98682.19;5051734;28;20066;-47
2021/12/04 05:33:07;;;;;;;1.80;1.20;;;;;;;20.56;33.81;98682.19;5052403;28;20095;-50
2021/12/04 05:35:32;;;;;;;2.15;1.33;;;;;;;20.54;33.61;98674.25;5052602;28;20531;-68
2021/12/04 05:37:58;;;;;;;1.80;1.20;;;;;;;20.53;33.78;98667.09;5052036;28;20041;-68
2021/12/04 05:40:23;;;;;;;1.60;1.10;;;;;;;20.54;33.77;98679.00;5065538;28;20079;-68
2021/12/04 05:42:49;;;;;;;1.75;1.10;;;;;;;20.51;33.70;98658.38;5072284;28;20527;-68
2021/12/04 05:45:22;;;;;;;1.80;1.20;;;;;;;20.50;33.72;98667.06;5072018;28;20048;-68
2021/12/04 05:47:58;;;;;;;2.20;1.30;;;;;;;20.51;33.55;98660.34;5071788;28;20059;-68
2021/12/04 05:53:14;;;;;;;1.77;1.10;;;;;;;20.49;33.77;98652.38;5072013;28;20090;-68
2021/12/04 05:55:52;;;;;;;1.63;1.10;;;;;;;20.51;33.86;98643.69;5071897;28;20452;-69
2021/12/04 05:58:20;;;;;;;1.65;1.17;;;;;;;20.49;33.84;98646.03;5071943;28;20082;-68
2021/12/04 06:00:46;;;;;;;1.63;1.05;;;;;;;20.49;33.71;98632.16;5071636;28;20408;-68
2021/12/04 06:03:12;;;;;;;2.15;1.20;;;;;;;20.49;33.84;98641.28;5071876;28;20093;-68
2021/12/04 06:05:38;;;;;;;1.75;1.10;;;;;;;20.48;33.68;98638.91;5071750;28;20049;-68
2021/12/04 06:08:03;;;;;;;1.70;1.20;;;;;;;20.47;33.74;98640.09;5053630;28;20071;-68
2021/12/04 06:10:29;;;;;;;1.98;1.25;;;;;;;20.47;33.88;98645.63;5071602;28;20483;-68
2021/12/04 06:12:55;;;;;;;2.00;1.20;;;;;;;20.46;33.98;98635.72;5071578;28;20515;-68
2021/12/04 06:15:20;;;;;;;1.67;1.08;;;;;;;20.46;33.81;98647.63;5071656;28;20159;-68
2021/12/04 06:17:45;;;;;;;2.22;1.40;;;;;;;20.44;34.06;98630.56;5071662;28;20048;-68
2021/12/04 06:22:55;;;;;;;1.67;1.10;;;;;;;20.43;33.92;98636.47;5071878;28;20460;-67
2021/12/04 06:25:24;;;;;;;1.45;1.10;;;;;;;20.42;34.01;98644.00;5071656;28;20509;-69
2021/12/04 06:27:50;;;;;;;1.83;1.20;;;;;;;20.43;34.16;98639.22;5071608;28;20404;-68
2021/12/04 06:30:17;;;;;;;1.60;1.00;;;;;;;20.44;33.90;98638.06;5071229;28;20511;-68
2021/12/04 06:32:45;;;;;;;2.05;1.27;;;;;;;20.43;33.98;98636.47;5071379;28;20068;-67
2021/12/04 06:35:11;;;;;;;1.85;1.00;;;;;;;20.43;33.91;98626.16;5071145;28;20060;-69
2021/12/04 06:37:37;;;;;;;1.80;1.30;;;;;;;20.44;34.09;98629.75;5071239;28;20040;-68
2021/12/04 06:40:05;;;;;;;2.15;1.20;;;;;;;20.43;34.10;98628.13;5070201;28;20052;-68
2021/12/04 06:42:31;;;;;;;1.90;1.10;;;;;;;20.43;34.18;98617.00;5070043;28;20128;-68
2021/12/04 06:44:57;;;;;;;1.55;1.05;;;;;;;20.41;33.99;98608.28;5071255;28;20135;-68
2021/12/04 06:47:23;;;;;;;2.25;1.30;;;;;;;20.40;34.06;98613.03;5071056;28;20036;-68
2021/12/04 06:49:52;;;;;;;1.90;1.20;;;;;;;20.40;34.08;98613.03;5070710;28;20106;-68
2021/12/04 06:52:21;;;;;;;1.90;1.17;;;;;;;20.40;34.21;98601.13;5070853;28;20045;-68
2021/12/04 06:54:58;;;;;;;1.83;1.13;;;;;;;20.36;34.13;98590.03;5070905;28;20041;-68
2021/12/04 06:57:24;;;;;;;1.90;1.30;;;;;;;20.38;34.11;98595.19;5069017;28;20496;-68
2021/12/04 06:59:53;;;;;;;2.22;1.35;;;;;;;20.39;33.96;98594.00;5070995;28;20047;-68
2021/12/04 07:02:19;;;;;;;1.77;1.10;;;;;;;20.37;34.20;98591.63;5071016;28;20539;-68
2021/12/04 07:04:45;;;;;;;1.75;1.13;;;;;;;20.38;34.28;98586.84;5070882;28;20048;-69
2021/12/04 07:07:11;;;;;;;1.80;1.20;;;;;;;20.38;34.16;98589.63;5070842;28;20072;-68
2021/12/04 07:09:38;;;;;;;1.75;1.10;;;;;;;20.37;34.18;98583.28;5070854;28;20536;-68
2021/12/04 07:12:05;;;;;;;1.73;1.27;;;;;;;20.37;34.14;98594.41;5070644;28;20071;-47
2021/12/04 07:14:31;;;;;;;1.80;1.20;;;;;;;20.39;34.01;98599.56;5070541;28;20044;-47
2021/12/04 07:16:58;;;;;;;1.98;1.13;;;;;;;20.39;34.25;98596.78;5070673;28;20045;-50
2021/12/04 07:19:23;;;;;;;2.08;1.25;;;;;;;20.40;34.22;98584.47;5070431;28;20393;-47
2021/12/04 07:21:49;;;;;;;1.85;1.20;;;;;;;20.37;34.09;98583.28;5070332;28;20535;-47
2021/12/04 07:24:15;;;;;;;2.25;1.30;;;;;;;20.37;34.23;98572.19;5070489;28;20052;-47
2021/12/04 07:26:40;;;;;;;2.00;1.10;;;;;;;20.39;34.04;98571.78;5070625;28;20041;-47
2021/12/04 07:29:06;;;;;;;1.92;1.20;;;;;;;20.38;34.09;98562.66;5070323;28;20125;-47
2021/12/04 07:31:33;;;;;;;2.03;1.33;;;;;;;20.39;34.08;98563.44;5070375;28;20051;-47
2021/12/04 07:33:59;;;;;;;1.75;1.00;;;;;;;20.37;34.12;98563.84;5070180;28;20571;-50
2021/12/04 07:36:25;;;;;;;1.90;1.20;;;;;;;20.38;34.01;98551.53;5070343;28;20087;-48
2021/12/04 07:38:51;;;;;;;1.85;1.13;;;;;;;20.38;34.12;98550.75;5069619;28;20131;-50
2021/12/04 07:41:16;;;;;;;1.45;0.98;;;;;;;20.36;34.24;98551.16;5070405;28;20049;-47
2021/12/04 07:43:42;;;;;;;1.73;1.10;;;;;;;20.38;34.33;98540.44;5070241;28;20642;-48
2021/12/04 07:46:07;;;;;;;1.90;1.20;;;;;;;20.36;34.24;98542.81;5069985;28;20036;-48
2021/12/04 07:48:33;;;;;;;1.80;1.10;;;;;;;20.35;34.07;98542.00;5070276;28;20064;-47
2021/12/04 07:51:01;;;;;;;1.70;1.10;;;;;;;20.39;34.33;98557.91;5070018;28;20044;-48
2021/12/04 07:53:28;;;;;;;1.92;1.23;;;;;;;20.38;34.22;98547.97;5069308;28;20052;-49
2021/12/04 07:55:54;;;;;;;1.80;1.10;;;;;;;20.37;34.25;98546.38;5070046;28;20047;-67
2021/12/04 07:58:19;;;;;;;2.13;1.05;;;;;;;20.38;34.10;98540.44;5070036;28;20052;-68
2021/12/04 08:00:45;;;;;;;1.80;1.10;;;;;;;20.39;34.19;98530.91;5070012;28;20032;-47
2021/12/04 08:03:10;;;;;;;1.60;1.10;;;;;;;20.38;34.26;98531.31;5069658;28;20047;-49
2021/12/04 08:05:36;;;;;;;1.95;1.30;;;;;;;20.40;34.13;98523.38;5069968;28;20041;-47
2021/12/04 08:08:02;;;;;;;1.80;1.13;;;;;;;20.42;34.12;98529.31;5069979;28;20132;-68
2021/12/04 08:10:28;;;;;;;1.98;1.00;;;;;;;20.42;34.13;98534.88;5069777;28;20056;-68
2021/12/04 08:12:54;;;;;;;1.63;1.10;;;;;;;20.41;34.11;98528.53;5069938;28;20059;-68
2021/12/04 08:15:19;;;;;;;1.88;1.20;;;;;;;20.41;34.35;98522.19;5069845;28;20036;-69
2021/12/04 08:17:45;;;;;;;1.52;1.05;;;;;;;20.41;34.12;98520.19;5069697;28;20087;-68
2021/12/04 08:20:13;;;;;;;1.50;1.00;;;;;;;20.41;34.28;98522.97;5069860;28;20124;-68
2021/12/04 08:22:39;;;;;;;1.88;1.00;;;;;;;20.40;34.33;98512.25;5069678;28;20128;-68
2021/12/04 08:25:05;;;;;;;1.90;1.30;;;;;;;20.40;34.30;98507.50;5069332;28;20119;-68
2021/12/04 08:27:31;;;;;;;1.80;1.10;;;;;;;20.40;34.37;98495.59;5069545;28;20032;-69
2021/12/04 08:29:56;;;;;;;2.75;1.10;;;;;;;20.39;34.38;98492.03;5069350;28;20033;-68
2021/12/04 08:32:24;;;;;;;1.85;1.15;;;;;;;20.41;34.52;98497.19;5069588;28;20072;-68
2021/12/04 08:34:51;;;;;;;2.03;1.17;;;;;;;20.42;34.30;98493.22;5069733;28;20107;-68
2021/12/04 08:37:16;;;;;;;1.90;1.10;;;;;;;20.41;34.54;98486.88;5069292;28;20123;-69
2021/12/04 08:39:42;;;;;;;1.70;1.20;;;;;;;20.41;34.38;98481.31;5068155;28;20107;-68
2021/12/04 08:42:07;;;;;;;1.75;1.20;;;;;;;20.42;34.37;98482.91;5068339;28;20523;-67
2021/12/04 08:44:33;;;;;;;1.80;1.10;;;;;;;20.43;34.43;98484.50;5069253;28;20053;-67
2021/12/04 08:46:59;;;;;;;2.15;1.23;;;;;;;20.45;34.35;98478.59;5069316;28;20052;-68
2021/12/04 08:49:26;;;;;;;2.05;1.25;;;;;;;20.43;34.57;98476.19;5069286;28;20048;-68
2021/12/04 08:51:52;;;;;;;1.92;1.13;;;;;;;20.44;34.44;98471.41;5067075;28;20055;-68
2021/12/04 08:54:17;;;;;;;2.08;1.25;;;;;;;20.44;34.34;98466.69;5069075;28;20052;-68
2021/12/04 08:56:43;;;;;;;1.70;1.08;;;;;;;20.45;34.59;98471.03;5069180;28;20135;-67
2021/12/04 08:59:08;;;;;;;2.20;1.30;;;;;;;20.46;34.48;98464.28;5064256;28;20654;-68
2021/12/04 09:01:39;;;;;;;1.83;1.10;;;;;;;20.46;34.59;98457.94;5049209;28;20145;-68
2021/12/04 09:04:08;;;;;;;2.00;1.30;;;;;;;20.46;34.70;98460.72;5049740;28;20041;-68
2021/12/04 09:06:34;;;;;;;1.50;1.00;;;;;;;20.47;34.49;98457.53;5052900;28;20052;-68
2021/12/04 09:09:00;;;;;;;1.77;1.08;;;;;;;20.47;34.43;98462.31;5048407;28;20041;-68
2021/12/04 09:11:32;;;;;;;1.90;1.17;;;;;;;20.46;34.57;98450.41;5052679;28;20068;-68
2021/12/04 09:13:58;;;;;;;1.50;1.10;;;;;;;20.49;34.63;98443.25;5052582;28;20044;-69
2021/12/04 09:16:25;;;;;;;2.03;1.33;;;;;;;20.49;34.39;98444.03;5052651;28;20044;-68
2021/12/04 09:18:51;;;;;;;1.40;1.00;;;;;;;20.48;34.47;98442.47;5052639;28;20052;-68
2021/12/04 09:21:17;;;;;;;1.80;1.17;;;;;;;20.51;34.37;98447.25;5050524;28;20049;-69
2021/12/04 09:23:49;;;;;;;1.80;1.10;;;;;;;20.51;34.48;98436.13;5052566;28;20055;-68
2021/12/04 09:26:30;;;;;;;1.90;1.23;;;;;;;20.51;34.68;98436.13;5052740;28;20457;-48
2021/12/04 09:29:21;;;;;;;1.55;1.08;;;;;;;20.52;34.50;98428.59;5052396;28;20083;-48
2021/12/04 10:01:46;;;;;;;1.48;1.00;;;;;;;20.46;34.77;98416.28;4990233;28;20096;-47
2021/12/04 10:33:49;;;;;;;1.60;1.02;;;;;;;20.43;34.92;98358.69;5051577;28;20059;-68
2021/12/04 10:36:39;;;;;;;1.90;1.10;;;;;;;20.43;35.11;98359.53;5051700;28;20084;-69
2021/12/04 10:39:08;;;;;;;1.73;1.20;;;;;;;20.44;34.98;98349.19;5050844;28;20052;-69
2021/12/04 10:41:39;;;;;;;1.73;1.10;;;;;;;20.44;35.15;98352.81;5054178;28;20049;-68
2021/12/04 10:44:22;;;;;;;1.80;1.00;;;;;;;20.47;34.96;98363.09;5054036;28;20049;-67
2021/12/04 10:47:11;;;;;;;1.25;0.82;;;;;;;20.46;34.97;98355.97;5054951;28;20066;-68
2021/12/04 10:52:55;;;;;;;1.50;0.95;;;;;;;20.48;35.18;98342.47;5051268;28;20143;-68
2021/12/04 11:38:35;;;;;;;1.48;1.00;;;;;;;20.46;35.57;98300.41;5049792;28;20064;-47
2021/12/04 11:46:45;;;;;;;1.55;1.10;;;;;;;20.45;35.58;98296.06;4949862;29;20075;-48
2021/12/04 11:49:20;;;;;;;1.70;1.10;;;;;;;20.44;35.71;98307.53;4949729;28;20581;-47
2021/12/04 11:51:55;;;;;;;1.80;1.10;;;;;;;20.44;35.77;98290.88;4949970;29;20051;-47
2021/12/04 11:54:22;;;;;;;1.67;1.08;;;;;;;20.47;35.74;98290.09;4950014;29;20051;-47
2021/12/04 11:56:58;;;;;;;1.38;1.00;;;;;;;21.06;34.81;98288.31;4949686;29;20584;-47
2021/12/04 11:59:31;;;;;;;1.70;1.00;;;;;;;21.39;34.24;98275.88;4949946;29;20825;-47
2021/12/04 12:02:00;;;;;;;1.95;1.20;;;;;;;21.31;34.40;98293.03;4949853;29;20110;-48
2021/12/04 12:04:46;;;;;;;2.17;1.30;;;;;;;21.14;34.87;98300.19;4949636;29;20047;-47
2021/12/04 12:07:16;;;;;;;1.75;1.08;;;;;;;21.64;33.91;98272.13;4949338;29;20043;-48
2021/12/04 12:09:42;;;;;;;1.90;1.30;;;;;;;22.15;33.02;98273.38;4949526;29;20098;-69
2021/12/04 12:12:13;;;;;;;2.28;1.38;;;;;;;21.98;33.43;98275.84;4949716;28;20665;-69
2021/12/04 12:14:48;;;;;;;1.90;1.17;;;;;;;21.73;33.68;98275.28;4949664;29;20158;-69
2021/12/04 12:17:16;;;;;;;1.83;1.20;;;;;;;21.51;34.38;98276.63;4949651;29;20051;-67
2021/12/04 12:19:50;;;;;;;2.42;1.20;;;;;;;21.30;34.70;98269.19;4949562;29;20055;-69
2021/12/04 12:25:39;;;;;;;2.50;1.50;;;;;;;20.98;35.08;98249.84;5049417;28;20056;-69
2021/12/04 12:36:04;;;;;;;2.58;1.35;;;;;;;20.65;35.93;98240.84;5049330;28;20084;-69
2021/12/04 12:38:32;;;;;;;1.88;1.15;;;;;;;20.59;36.12;98242.44;5047778;28;20064;-68
2021/12/04 12:41:03;;;;;;;2.55;1.63;;;;;;;20.57;36.17;98245.63;5025243;28;20103;-69
2021/12/04 12:43:37;;;;;;;1.90;1.30;;;;;;;20.51;36.22;98250.00;5047076;28;20107;-48
2021/12/04 12:46:03;;;;;;;2.53;1.60;;;;;;;20.53;36.02;98235.72;5043553;28;20052;-69
2021/12/04 12:48:29;;;;;;;4.20;1.70;;;;;;;20.55;36.34;98241.66;5061495;28;20037;-50
2021/12/04 12:51:05;;;;;;;2.30;1.50;;;;;;;20.54;36.25;98240.06;5049210;28;20056;-51
2021/12/04 12:53:40;;;;;;;2.53;1.67;;;;;;;20.56;36.19;98254.34;5040996;28;20053;-50
2021/12/04 12:56:09;;;;;;;3.30;1.90;;;;;;;20.57;36.33;98244.81;5039764;28;20396;-49
2021/12/04 12:58:43;;;;;;;3.10;1.70;;;;;;;20.57;36.24;98250.38;5042666;28;20129;-51
2021/12/04 13:12:46;;;;;;;8.07;5.57;;;;;;;20.59;36.66;98229.34;5061300;28;20520;-71
2021/12/04 13:15:14;;;;;;;10.88;5.65;;;;;;;20.59;36.61;98228.56;5060024;28;20037;-66
2021/12/04 13:17:41;;;;;;;7.65;5.18;;;;;;;20.62;36.62;98230.53;5027094;28;20455;-72
2021/12/04 13:20:08;;;;;;;8.13;4.60;;;;;;;20.65;36.85;98228.94;5030993;28;20055;-68
2021/12/04 13:22:34;;;;;;;6.43;4.00;;;;;;;20.65;37.08;98243.63;5047162;28;20048;-73
2021/12/04 13:25:06;;;;;;;5.68;3.40;;;;;;;20.67;37.32;98243.22;5053459;28;20036;-73
2021/12/04 13:30:16;;;;;;;4.88;3.28;;;;;;;20.73;37.25;98247.16;5037920;28;20071;-67
2021/12/04 13:32:44;;;;;;;5.15;3.45;;;;;;;20.72;37.14;98246.38;5043159;28;20045;-67
2021/12/04 13:35:20;;;;;;;5.53;3.10;;;;;;;20.72;37.15;98240.81;5062446;28;20505;-74
2021/12/04 13:37:48;;;;;;;5.38;3.15;;;;;;;20.73;37.17;98236.84;5060185;28;20769;-69
2021/12/04 13:40:17;;;;;;;6.10;3.45;;;;;;;20.74;37.14;98227.31;5059324;28;20123;-66
2021/12/04 13:42:44;;;;;;;5.80;3.22;;;;;;;20.74;37.07;98226.53;5058024;28;20051;-70
2021/12/04 13:45:12;;;;;;;5.13;3.78;;;;;;;20.72;37.00;98218.59;5053039;28;20072;-80
2021/12/04 13:47:39;;;;;;;5.50;3.72;;;;;;;20.74;36.83;98218.97;5051151;28;20544;-71
2021/12/04 13:51:14;;;;;;;5.00;3.30;;;;;;;20.74;37.06;98224.53;5034520;28;20529;-66
2021/12/04 13:53:30;;;;;;;6.28;3.85;;;;;;;20.74;37.18;98193.97;5037111;28;20480;-70
2021/12/04 13:55:59;;;;;;;5.25;3.47;;;;;;;20.75;37.07;98208.66;5045677;28;20410;-70
2021/12/04 13:58:26;;;;;;;5.13;3.40;;;;;;;20.76;37.23;98211.03;5052881;28;20037;-74
2021/12/04 14:00:52;;;;;;;8.13;3.47;;;;;;;20.75;37.33;98203.88;5048875;28;20570;-69
2021/12/04 14:03:24;;;;;;;5.07;3.40;;;;;;;20.78;37.37;98194.72;5046002;28;20045;-64
2021/12/04 14:05:49;;;;;;;4.25;3.28;;;;;;;20.84;37.06;98186.75;5039363;28;20096;-52
2021/12/04 14:08:15;;;;;;;6.72;3.15;;;;;;;20.90;37.18;98179.59;5051080;28;20435;-47
2021/12/04 14:10:42;;;;;;;4.28;2.97;;;;;;;20.93;37.18;98177.97;5052569;28;20068;-47
2021/12/04 14:13:09;;;;;;;4.40;3.03;;;;;;;20.91;37.34;98170.06;5052383;28;20045;-51
2021/12/04 14:15:35;;;;;;;5.55;3.22;;;;;;;20.88;37.24;98171.66;5051605;28;20040;-50
2021/12/04 14:18:08;;;;;;;5.75;3.05;;;;;;;20.87;37.42;98177.63;5045820;28;20036;-49
2021/12/04 14:20:36;;;;;;;10.00;3.10;;;;;;;20.86;37.55;98174.06;5056070;28;20049;-48
2021/12/04 14:23:03;;;;;;;5.53;3.33;;;;;;;20.84;37.57;98170.09;5053229;28;20149;-48
2021/12/04 14:25:29;;;;;;;6.30;3.53;;;;;;;20.81;37.57;98173.69;5050613;28;20501;-48
2021/12/04 14:27:56;;;;;;;6.43;3.05;;;;;;;20.79;37.71;98167.75;5046163;28;20052;-54
2021/12/04 14:30:32;;;;;;;5.32;2.80;;;;;;;20.81;37.92;98171.69;5047632;28;20053;-47
2021/12/04 14:33:01;;;;;;;5.47;2.85;;;;;;;20.82;38.22;98162.16;5049338;28;20107;-48
2021/12/04 14:35:29;;;;;;;4.28;2.80;;;;;;;20.84;38.13;98154.19;5050592;28;20049;-49
2021/12/04 14:37:57;;;;;;;5.03;2.90;;;;;;;20.85;38.26;98155.78;5046995;28;20542;-51
2021/12/04 14:40:31;;;;;;;6.18;2.42;;;;;;;20.85;38.55;98147.44;5055848;28;20164;-58
2021/12/04 14:42:57;;;;;;;5.90;3.17;;;;;;;20.88;38.23;98160.56;5064347;28;20103;-52
2021/12/04 14:45:26;;;;;;;5.93;3.13;;;;;;;20.85;38.84;98157.78;5040865;28;20037;-49
2021/12/04 14:48:03;;;;;;;5.40;2.97;;;;;;;20.84;38.68;98168.09;5050290;28;20048;-71
2021/12/04 14:50:29;;;;;;;6.88;2.80;;;;;;;20.83;38.73;98158.19;5051724;28;20072;-69
2021/12/04 14:53:00;;;;;;;4.90;3.08;;;;;;;20.84;38.77;98170.09;5038099;28;20079;-68
2021/12/04 14:55:30;;;;;;;5.47;2.95;;;;;;;20.85;38.53;98166.91;5041053;28;20487;-71
2021/12/04 14:57:56;;;;;;;4.18;2.70;;;;;;;20.84;38.53;98179.22;5064003;28;20041;-71